Time;durP1;ratioP1;P1;durP2;ratioP2;P2;SDS_P1;SDS_P2;PMS_P1;PMS_P2;Temp;Humidity;BMP_temperature;BMP_pressure;BME280_temperature;BME280_humidity;BME280_pressure;Samples;Min_cycle;Max_cycle;Signal;HPM_P1;HPM_P2
2021/01/09 00:00:48;;;;;;;1999.90;999.90;;;1.50;99.90;;;;;;5026081;28;20177;-80
2021/01/09 00:03:14;;;;;;;1999.90;999.90;;;1.60;99.90;;;;;;5008557;28;20629;-80
2021/01/09 00:05:39;;;;;;;1999.90;999.90;;;1.60;99.90;;;;;;5026265;28;20201;-80
2021/01/09 00:08:08;;;;;;;1999.90;999.90;;;1.70;99.90;;;;;;5008629;28;20166;-80
2021/01/09 00:10:34;;;;;;;1999.90;999.90;;;1.70;99.90;;;;;;5025864;28;20162;-81
2021/01/09 00:12:59;;;;;;;1999.90;999.90;;;1.80;99.90;;;;;;5008051;28;20544;-80
2021/01/09 00:15:25;;;;;;;1999.90;999.90;;;1.80;99.90;;;;;;5008013;28;20174;-81
2021/01/09 00:17:51;;;;;;;1999.90;999.90;;;1.80;99.90;;;;;;5025658;28;20420;-80
2021/01/09 00:20:21;;;;;;;1999.90;999.90;;;1.90;99.90;;;;;;5007805;28;20575;-80
2021/01/09 00:22:46;;;;;;;1999.90;999.90;;;1.80;99.90;;;;;;5025154;28;20158;-80
2021/01/09 00:25:16;;;;;;;1999.90;999.90;;;1.90;99.90;;;;;;5025312;28;20208;-80
2021/01/09 00:27:47;;;;;;;1999.90;999.90;;;1.80;99.90;;;;;;5025122;28;20166;-80
2021/01/09 00:30:13;;;;;;;1999.90;999.90;;;1.80;99.90;;;;;;5025184;28;20192;-80
2021/01/09 00:32:39;;;;;;;1999.90;999.90;;;1.90;99.90;;;;;;5007476;28;20197;-80
2021/01/09 00:35:06;;;;;;;1999.90;999.90;;;2.00;99.90;;;;;;5007373;28;20169;-80
2021/01/09 00:37:32;;;;;;;1999.90;999.90;;;1.90;99.90;;;;;;5025044;28;20174;-80
2021/01/09 00:39:58;;;;;;;1999.90;999.90;;;2.00;99.90;;;;;;5007411;28;20170;-81
2021/01/09 00:42:26;;;;;;;1999.90;999.90;;;2.00;99.90;;;;;;5024787;28;20252;-80
2021/01/09 00:44:54;;;;;;;1999.90;999.90;;;2.10;99.90;;;;;;5023710;28;20170;-80
2021/01/09 00:47:20;;;;;;;1999.90;999.90;;;2.00;99.90;;;;;;5023300;28;20176;-80
2021/01/09 00:49:46;;;;;;;1999.90;999.90;;;2.10;99.90;;;;;;5022228;28;20205;-80
2021/01/09 00:52:12;;;;;;;1999.90;999.90;;;2.10;99.90;;;;;;5022659;28;20169;-80
2021/01/09 00:54:37;;;;;;;1999.90;999.90;;;2.10;99.90;;;;;;5023079;28;20404;-80
2021/01/09 00:57:06;;;;;;;1999.90;999.90;;;2.00;99.90;;;;;;5022913;28;20740;-79
2021/01/09 00:59:34;;;;;;;1999.90;999.90;;;1.90;99.90;;;;;;5005096;28;20437;-79
2021/01/09 01:02:00;;;;;;;1999.90;999.90;;;1.90;99.90;;;;;;5004634;28;20166;-80
2021/01/09 01:04:26;;;;;;;1999.90;999.90;;;2.00;99.90;;;;;;5023077;28;20166;-80
2021/01/09 01:06:51;;;;;;;1999.90;999.90;;;1.90;99.90;;;;;;5022727;28;20174;-80
2021/01/09 01:09:17;;;;;;;1999.90;999.90;;;1.90;99.90;;;;;;5022977;28;20182;-80
2021/01/09 01:11:43;;;;;;;1999.90;999.90;;;1.90;99.90;;;;;;5006712;28;20521;-81
2021/01/09 01:14:09;;;;;;;1999.90;999.90;;;2.00;99.90;;;;;;5006254;28;20170;-80
2021/01/09 01:16:35;;;;;;;1999.90;999.90;;;1.90;99.90;;;;;;5005877;28;20166;-80
2021/01/09 01:19:00;;;;;;;1999.90;999.90;;;1.90;99.90;;;;;;5023728;28;20535;-80
2021/01/09 01:21:26;;;;;;;1999.90;999.90;;;2.00;99.90;;;;;;5023568;28;20166;-80
2021/01/09 01:23:52;;;;;;;1999.90;999.90;;;2.00;99.90;;;;;;5005662;28;20166;-80
2021/01/09 01:26:18;;;;;;;1999.90;999.90;;;2.00;99.90;;;;;;5023424;28;20440;-80
2021/01/09 01:28:43;;;;;;;1999.90;999.90;;;1.90;99.90;;;;;;5005978;28;20225;-80
2021/01/09 01:31:09;;;;;;;1999.90;999.90;;;2.00;99.90;;;;;;5023492;28;20170;-80
2021/01/09 01:33:41;;;;;;;1999.90;999.90;;;2.00;99.90;;;;;;5023494;28;20189;-81
2021/01/09 01:36:10;;;;;;;1999.90;999.90;;;2.00;99.90;;;;;;5023292;28;20162;-80
2021/01/09 01:38:36;;;;;;;1999.90;999.90;;;1.90;99.90;;;;;;5024332;28;20162;-80
2021/01/09 01:41:06;;;;;;;1999.90;999.90;;;1.90;99.90;;;;;;5023173;28;20336;-80
2021/01/09 01:43:33;;;;;;;1999.90;999.90;;;2.00;99.90;;;;;;5023443;28;20161;-80
2021/01/09 01:46:01;;;;;;;1999.90;999.90;;;2.10;99.90;;;;;;5024129;28;20165;-80
2021/01/09 01:48:26;;;;;;;1999.90;999.90;;;2.10;99.90;;;;;;5023447;28;20205;-80
2021/01/09 01:50:52;;;;;;;1999.90;999.90;;;2.10;99.90;;;;;;5023499;28;20258;-80
2021/01/09 01:53:18;;;;;;;1999.90;999.90;;;2.10;99.90;;;;;;5006578;28;20166;-80
2021/01/09 01:55:44;;;;;;;1999.90;999.90;;;2.10;99.90;;;;;;5023550;28;20572;-80
2021/01/09 01:58:11;;;;;;;1999.90;999.90;;;2.00;99.90;;;;;;5023415;28;20408;-80
2021/01/09 02:00:44;;;;;;;1999.90;999.90;;;2.00;99.90;;;;;;5023601;28;20170;-80
2021/01/09 02:03:10;;;;;;;1999.90;999.90;;;2.00;99.90;;;;;;5006902;28;20613;-80
2021/01/09 02:05:41;;;;;;;1999.90;999.90;;;2.00;99.90;;;;;;5023644;28;20182;-80
2021/01/09 02:08:11;;;;;;;1999.90;999.90;;;2.00;99.90;;;;;;5024223;28;20209;-80
2021/01/09 02:10:39;;;;;;;1999.90;999.90;;;2.10;99.90;;;;;;5006307;28;20173;-80
2021/01/09 02:13:26;;;;;;;1999.90;999.90;;;2.10;99.90;;;;;;5023197;28;20645;-80
2021/01/09 02:15:53;;;;;;;1999.90;999.90;;;2.10;99.90;;;;;;5006569;28;20533;-80
2021/01/09 02:18:19;;;;;;;1999.90;999.90;;;2.10;99.90;;;;;;5023721;28;20257;-80
2021/01/09 02:20:49;;;;;;;1999.90;999.90;;;2.10;99.90;;;;;;5023830;28;20207;-80
2021/01/09 02:23:14;;;;;;;1999.90;999.90;;;2.10;99.90;;;;;;5024381;28;20169;-80
2021/01/09 02:25:40;;;;;;;1999.90;999.90;;;2.20;99.90;;;;;;5023065;28;20157;-80
2021/01/09 02:28:06;;;;;;;1999.90;999.90;;;2.10;99.90;;;;;;5023632;28;20181;-80
2021/01/09 02:30:34;;;;;;;1999.90;999.90;;;2.10;99.90;;;;;;5006191;28;20206;-80
2021/01/09 02:33:10;;;;;;;1999.90;999.90;;;2.00;99.90;;;;;;5022632;28;20412;-79
2021/01/09 02:35:38;;;;;;;1999.90;999.90;;;2.10;99.90;;;;;;5022915;28;20233;-80
2021/01/09 02:38:05;;;;;;;1999.90;999.90;;;2.10;99.90;;;;;;5022456;28;20502;-80
2021/01/09 02:40:38;;;;;;;1999.90;999.90;;;2.10;99.90;;;;;;5004943;28;20181;-80
2021/01/09 02:43:03;;;;;;;1999.90;999.90;;;2.20;99.90;;;;;;5022583;28;20625;-80
2021/01/09 02:45:29;;;;;;;1999.90;999.90;;;2.20;99.90;;;;;;5021898;28;20234;-80
2021/01/09 02:47:55;;;;;;;1999.90;999.90;;;2.10;99.90;;;;;;5003551;28;20181;-80
2021/01/09 02:50:21;;;;;;;1999.90;999.90;;;2.10;99.90;;;;;;5021455;28;20447;-80
2021/01/09 02:52:46;;;;;;;1999.90;999.90;;;2.10;99.90;;;;;;5020982;28;20174;-80
2021/01/09 02:55:12;;;;;;;1999.90;999.90;;;2.10;99.90;;;;;;5003951;28;20188;-80
2021/01/09 02:57:38;;;;;;;1999.90;999.90;;;2.10;99.90;;;;;;5021360;28;20166;-80
2021/01/09 03:00:05;;;;;;;1999.90;999.90;;;2.10;99.90;;;;;;5004778;28;20537;-80
2021/01/09 03:02:30;;;;;;;1999.90;999.90;;;2.10;99.90;;;;;;5004399;28;20293;-80
2021/01/09 03:04:56;;;;;;;1999.90;999.90;;;2.10;99.90;;;;;;5021834;28;20198;-80
2021/01/09 03:07:22;;;;;;;1999.90;999.90;;;2.10;99.90;;;;;;5005142;28;20174;-80
2021/01/09 03:09:47;;;;;;;1999.90;999.90;;;2.10;99.90;;;;;;5004070;28;20707;-80
2021/01/09 03:12:13;;;;;;;1999.90;999.90;;;2.10;99.90;;;;;;5004485;28;20179;-80
2021/01/09 03:14:39;;;;;;;1999.90;999.90;;;2.20;99.90;;;;;;5004974;28;20252;-80
2021/01/09 03:17:04;;;;;;;1999.90;999.90;;;2.20;99.90;;;;;;5022264;28;20162;-81
2021/01/09 03:19:33;;;;;;;1999.90;999.90;;;2.20;99.90;;;;;;5005171;28;20188;-81
2021/01/09 03:21:58;;;;;;;1999.90;999.90;;;2.20;99.90;;;;;;5004622;28;20177;-80
2021/01/09 03:24:24;;;;;;;1999.90;999.90;;;2.10;99.90;;;;;;5022153;28;20174;-80
2021/01/09 03:26:50;;;;;;;1999.90;999.90;;;2.10;99.90;;;;;;5003775;28;20170;-80
2021/01/09 03:29:15;;;;;;;1999.90;999.90;;;2.10;99.90;;;;;;5020968;28;20556;-80
2021/01/09 03:31:41;;;;;;;1999.90;999.90;;;2.20;99.90;;;;;;5002850;28;20166;-79
2021/01/09 03:34:07;;;;;;;1999.90;999.90;;;2.20;99.90;;;;;;5020794;28;20162;-80
2021/01/09 03:36:32;;;;;;;1999.90;999.90;;;2.10;99.90;;;;;;5002243;28;20169;-80
2021/01/09 03:38:58;;;;;;;1999.90;999.90;;;2.00;99.90;;;;;;5020450;28;20165;-80
2021/01/09 03:41:24;;;;;;;1999.90;999.90;;;2.00;99.90;;;;;;5020877;28;20208;-80
2021/01/09 03:43:50;;;;;;;1999.90;999.90;;;1.90;99.90;;;;;;5020525;28;20202;-80
2021/01/09 03:46:15;;;;;;;1999.90;999.90;;;1.90;99.90;;;;;;5020699;28;20170;-80
2021/01/09 03:48:41;;;;;;;1999.90;999.90;;;1.90;99.90;;;;;;5020779;28;20190;-80
2021/01/09 03:51:07;;;;;;;1999.90;999.90;;;1.90;99.90;;;;;;5020768;28;20172;-80
2021/01/09 03:53:32;;;;;;;1999.90;999.90;;;1.90;99.90;;;;;;5003053;28;20540;-80
2021/01/09 03:55:58;;;;;;;1999.90;999.90;;;1.90;99.90;;;;;;5020935;28;20166;-80
2021/01/09 03:58:23;;;;;;;1999.90;999.90;;;1.90;99.90;;;;;;5020991;28;20166;-80
2021/01/09 04:00:49;;;;;;;1999.90;999.90;;;1.90;99.90;;;;;;5003278;28;20303;-79
2021/01/09 04:03:17;;;;;;;1999.90;999.90;;;1.90;99.90;;;;;;5020799;28;20154;-80
2021/01/09 04:05:43;;;;;;;1999.90;999.90;;;1.90;99.90;;;;;;5020254;28;20659;-80
2021/01/09 04:08:08;;;;;;;1999.90;999.90;;;1.80;99.90;;;;;;5019692;28;20158;-79
2021/01/09 04:10:34;;;;;;;1999.90;999.90;;;1.90;99.90;;;;;;5019897;28;20189;-80
2021/01/09 04:13:00;;;;;;;1999.90;999.90;;;1.80;99.90;;;;;;5019779;28;20205;-80
2021/01/09 04:15:25;;;;;;;1999.90;999.90;;;1.80;99.90;;;;;;5001811;28;20172;-80
2021/01/09 04:17:51;;;;;;;1999.90;999.90;;;1.80;99.90;;;;;;5020069;28;20168;-80
2021/01/09 04:20:17;;;;;;;1999.90;999.90;;;1.80;99.90;;;;;;5001922;28;20636;-80
2021/01/09 04:22:42;;;;;;;1999.90;999.90;;;1.90;99.90;;;;;;5004459;28;20174;-80
2021/01/09 04:25:09;;;;;;;1999.90;999.90;;;2.00;99.90;;;;;;5006268;28;20252;-80
2021/01/09 04:27:35;;;;;;;1999.90;999.90;;;2.00;99.90;;;;;;5023686;28;20166;-80
2021/01/09 04:30:00;;;;;;;1999.90;999.90;;;2.00;99.90;;;;;;5023320;28;20185;-80
2021/01/09 04:32:29;;;;;;;1999.90;999.90;;;2.00;99.90;;;;;;5024051;28;20170;-80
2021/01/09 04:34:55;;;;;;;1999.90;999.90;;;2.00;99.90;;;;;;5023520;28;20193;-80
2021/01/09 04:37:21;;;;;;;1999.90;999.90;;;2.00;99.90;;;;;;5023164;28;20213;-80
2021/01/09 04:39:50;;;;;;;1999.90;999.90;;;2.00;99.90;;;;;;5023251;28;20170;-80
2021/01/09 04:42:16;;;;;;;1999.90;999.90;;;1.90;99.90;;;;;;5023648;28;20169;-80
2021/01/09 04:44:45;;;;;;;1999.90;999.90;;;1.90;99.90;;;;;;5005297;28;20213;-80
2021/01/09 04:47:14;;;;;;;1999.90;999.90;;;1.90;99.90;;;;;;5023923;28;20675;-80
2021/01/09 04:49:40;;;;;;;1999.90;999.90;;;1.90;99.90;;;;;;5023319;28;20262;-80
2021/01/09 04:52:07;;;;;;;1999.90;999.90;;;1.90;99.90;;;;;;5022825;28;20621;-80
2021/01/09 04:54:33;;;;;;;1999.90;999.90;;;1.80;99.90;;;;;;5005433;28;20208;-80
2021/01/09 04:56:58;;;;;;;1999.90;999.90;;;1.90;99.90;;;;;;5022967;28;20158;-80
2021/01/09 04:59:24;;;;;;;1999.90;999.90;;;2.00;99.90;;;;;;5005108;28;20416;-80
2021/01/09 05:01:51;;;;;;;1999.90;999.90;;;2.00;99.90;;;;;;5022971;28;20617;-80
2021/01/09 05:04:18;;;;;;;1999.90;999.90;;;2.10;99.90;;;;;;5004713;28;20170;-80
2021/01/09 05:06:46;;;;;;;1999.90;999.90;;;2.20;99.90;;;;;;5022989;28;20173;-80
2021/01/09 05:09:13;;;;;;;1999.90;999.90;;;2.10;99.90;;;;;;5022282;28;20181;-80
2021/01/09 05:11:41;;;;;;;1999.90;999.90;;;2.10;99.90;;;;;;5022531;28;20170;-80
2021/01/09 05:14:07;;;;;;;1999.90;999.90;;;2.00;99.90;;;;;;5078879;23;20630;-85
2021/01/09 05:16:37;;;;;;;1999.90;999.90;;;2.00;99.90;;;;;;4998539;28;20155;-85
2021/01/09 05:19:04;;;;;;;1999.90;999.90;;;2.00;99.90;;;;;;4998171;28;20523;-85
2021/01/09 05:21:33;;;;;;;1999.90;999.90;;;2.00;99.90;;;;;;4980611;28;20253;-85
2021/01/09 05:24:04;;;;;;;1999.90;999.90;;;2.00;99.90;;;;;;4998136;28;20234;-85
2021/01/09 05:26:31;;;;;;;1999.90;999.90;;;2.10;99.90;;;;;;4998799;28;20206;-86
2021/01/09 05:29:01;;;;;;;1999.90;999.90;;;2.10;99.90;;;;;;4998080;28;20197;-86
2021/01/09 05:31:30;;;;;;;1999.90;999.90;;;2.00;99.90;;;;;;4998402;28;20189;-85
2021/01/09 05:33:55;;;;;;;1999.90;999.90;;;2.00;99.90;;;;;;4997822;28;20565;-85
2021/01/09 05:36:22;;;;;;;1999.90;999.90;;;2.00;99.90;;;;;;4997813;28;20224;-85
2021/01/09 05:38:52;;;;;;;1999.90;999.90;;;2.10;99.90;;;;;;4997834;28;20174;-85
2021/01/09 05:41:23;;;;;;;1999.90;999.90;;;2.00;99.90;;;;;;4998139;28;20235;-85
2021/01/09 05:44:04;;;;;;;1999.90;999.90;;;2.00;99.90;;;;;;4998080;28;20161;-85
2021/01/09 05:46:33;;;;;;;1999.90;999.90;;;2.00;99.90;;;;;;4998301;28;20163;-85
2021/01/09 05:49:00;;;;;;;1999.90;999.90;;;2.00;99.90;;;;;;4980143;28;20673;-85
2021/01/09 05:51:28;;;;;;;1999.90;999.90;;;2.00;99.90;;;;;;4997569;28;20175;-85
2021/01/09 05:53:54;;;;;;;1999.90;999.90;;;2.00;99.90;;;;;;4980675;28;20225;-85
2021/01/09 05:56:47;;;;;;;1999.90;999.90;;;2.00;99.90;;;;;;4998053;28;20322;-85
2021/01/09 05:59:14;;;;;;;1999.90;999.90;;;2.10;99.90;;;;;;4995439;28;20194;-85
2021/01/09 06:01:43;;;;;;;1999.90;999.90;;;2.10;99.90;;;;;;4998221;28;20525;-85
2021/01/09 06:04:17;;;;;;;1999.90;999.90;;;2.10;99.90;;;;;;4980540;28;20209;-85
2021/01/09 06:07:06;;;;;;;1999.90;999.90;;;2.20;99.90;;;;;;4997637;28;20629;-85
2021/01/09 06:09:35;;;;;;;1999.90;999.90;;;2.10;99.90;;;;;;4980895;28;20201;-85
2021/01/09 06:12:06;;;;;;;1999.90;999.90;;;2.20;99.90;;;;;;4980964;28;20174;-84
2021/01/09 06:14:34;;;;;;;1999.90;999.90;;;2.20;99.90;;;;;;4980607;28;20217;-85
2021/01/09 06:17:03;;;;;;;1999.90;999.90;;;2.20;99.90;;;;;;4980360;28;20171;-85
2021/01/09 06:19:31;;;;;;;1999.90;999.90;;;2.10;99.90;;;;;;4997978;28;20188;-85
2021/01/09 06:21:59;;;;;;;1999.90;999.90;;;2.20;99.90;;;;;;4998020;28;20174;-85
2021/01/09 06:24:24;;;;;;;1999.90;999.90;;;2.20;99.90;;;;;;4997629;28;20533;-85
2021/01/09 06:26:50;;;;;;;1999.90;999.90;;;2.20;99.90;;;;;;4980841;28;20166;-85
2021/01/09 06:29:27;;;;;;;1999.90;999.90;;;2.20;99.90;;;;;;4980312;28;20195;-85
2021/01/09 06:31:55;;;;;;;1999.90;999.90;;;2.10;99.90;;;;;;4998277;28;20166;-85
2021/01/09 06:34:24;;;;;;;1999.90;999.90;;;2.10;99.90;;;;;;4980113;28;20669;-85
2021/01/09 06:36:55;;;;;;;1999.90;999.90;;;2.10;99.90;;;;;;4998378;28;20162;-85
2021/01/09 06:39:24;;;;;;;1999.90;999.90;;;2.10;99.90;;;;;;4997144;28;20159;-85
2021/01/09 06:41:53;;;;;;;1999.90;999.90;;;2.10;99.90;;;;;;4980347;28;20233;-85
2021/01/09 06:44:20;;;;;;;1999.90;999.90;;;2.10;99.90;;;;;;4979951;28;20261;-85
2021/01/09 06:46:46;;;;;;;1999.90;999.90;;;2.10;99.90;;;;;;4979650;28;20174;-85
2021/01/09 06:49:19;;;;;;;1999.90;999.90;;;2.10;99.90;;;;;;4997504;28;20253;-85
2021/01/09 06:52:06;;;;;;;1999.90;999.90;;;2.10;99.90;;;;;;4979405;28;20198;-85
2021/01/09 06:54:44;;;;;;;1999.90;999.90;;;2.10;99.90;;;;;;4979416;28;20166;-85
2021/01/09 06:57:13;;;;;;;1999.90;999.90;;;2.20;99.90;;;;;;4996965;28;20528;-85
2021/01/09 06:59:40;;;;;;;1999.90;999.90;;;2.30;99.90;;;;;;4997249;28;20231;-85
2021/01/09 07:02:18;;;;;;;1999.90;999.90;;;2.30;99.90;;;;;;4996485;28;20162;-85
2021/01/09 07:04:54;;;;;;;1999.90;999.90;;;2.20;99.90;;;;;;4979080;28;20174;-85
2021/01/09 07:07:30;;;;;;;1999.90;999.90;;;2.20;99.90;;;;;;4979458;28;20198;-85
2021/01/09 07:10:06;;;;;;;1999.90;999.90;;;2.30;99.90;;;;;;4996807;28;20186;-85
2021/01/09 07:12:33;;;;;;;1999.90;999.90;;;2.30;99.90;;;;;;4979840;28;20189;-85
2021/01/09 07:15:07;;;;;;;1999.90;999.90;;;2.20;99.90;;;;;;4979997;28;20190;-85
2021/01/09 07:17:41;;;;;;;1999.90;999.90;;;2.30;99.90;;;;;;4996883;28;20146;-85
2021/01/09 07:20:12;;;;;;;1999.90;999.90;;;2.20;99.90;;;;;;4979205;28;20189;-85
2021/01/09 07:22:41;;;;;;;1999.90;999.90;;;2.30;99.90;;;;;;4996426;28;20166;-86
2021/01/09 07:25:09;;;;;;;1999.90;999.90;;;2.20;99.90;;;;;;4997033;28;20247;-85
2021/01/09 07:27:45;;;;;;;1999.90;999.90;;;2.30;99.90;;;;;;4997269;28;20162;-85
2021/01/09 07:30:18;;;;;;;1999.90;999.90;;;2.30;99.90;;;;;;4979406;28;20226;-85
2021/01/09 07:32:50;;;;;;;1999.90;999.90;;;2.30;99.90;;;;;;4979144;28;20173;-85
2021/01/09 07:35:22;;;;;;;1999.90;999.90;;;2.30;99.90;;;;;;4979461;28;20174;-85
2021/01/09 07:37:51;;;;;;;1999.90;999.90;;;2.30;99.90;;;;;;4997133;28;20147;-85
2021/01/09 07:40:27;;;;;;;1999.90;999.90;;;2.20;99.90;;;;;;4978953;28;20214;-85
2021/01/09 07:42:53;;;;;;;1999.90;999.90;;;2.20;99.90;;;;;;4996687;28;20153;-85
2021/01/09 07:45:32;;;;;;;1999.90;999.90;;;2.10;99.90;;;;;;4979626;28;20261;-85
2021/01/09 07:47:58;;;;;;;1999.90;999.90;;;2.20;99.90;;;;;;4996468;28;20392;-85
2021/01/09 07:50:24;;;;;;;1999.90;999.90;;;2.20;99.90;;;;;;4996137;28;20597;-85
2021/01/09 07:53:05;;;;;;;1999.90;999.90;;;2.20;99.90;;;;;;4978889;28;20163;-85
2021/01/09 07:55:47;;;;;;;1999.90;999.90;;;2.20;99.90;;;;;;4996237;28;20393;-85
2021/01/09 07:58:16;;;;;;;1999.90;999.90;;;2.30;99.90;;;;;;4997694;28;20194;-86
2021/01/09 08:00:45;;;;;;;1999.90;999.90;;;2.30;99.90;;;;;;5000673;28;20162;-85
2021/01/09 08:03:10;;;;;;;1999.90;999.90;;;2.30;99.90;;;;;;5000350;28;20685;-85
2021/01/09 08:05:37;;;;;;;1999.90;999.90;;;2.30;99.90;;;;;;4999834;28;20194;-85
2021/01/09 08:08:05;;;;;;;1999.90;999.90;;;2.30;99.90;;;;;;5000226;28;20167;-85
2021/01/09 08:10:34;;;;;;;1999.90;999.90;;;2.30;99.90;;;;;;4983131;28;20280;-86
2021/01/09 08:13:07;;;;;;;1999.90;999.90;;;2.30;99.90;;;;;;4999543;28;20672;-86
2021/01/09 08:15:35;;;;;;;1999.90;999.90;;;2.30;99.90;;;;;;4999958;28;20154;-86
2021/01/09 08:18:04;;;;;;;1999.90;999.90;;;2.30;99.90;;;;;;4982418;28;20159;-86
2021/01/09 08:20:33;;;;;;;1999.90;999.90;;;2.30;99.90;;;;;;4999996;28;20250;-86
2021/01/09 08:23:01;;;;;;;1999.90;999.90;;;2.30;99.90;;;;;;4999804;28;20170;-86
2021/01/09 08:25:39;;;;;;;1999.90;999.90;;;2.30;99.90;;;;;;4982223;28;20175;-85
2021/01/09 08:28:06;;;;;;;1999.90;999.90;;;2.40;99.90;;;;;;4998829;28;20561;-86
2021/01/09 08:30:33;;;;;;;1999.90;999.90;;;2.40;99.90;;;;;;4981391;28;20258;-86
2021/01/09 08:33:03;;;;;;;1999.90;999.90;;;2.50;99.90;;;;;;4981616;28;20166;-86
2021/01/09 08:35:30;;;;;;;1999.90;999.90;;;2.50;99.90;;;;;;4999410;28;20166;-85
2021/01/09 08:37:57;;;;;;;1999.90;999.90;;;2.50;99.90;;;;;;4982444;28;20625;-85
2021/01/09 08:40:24;;;;;;;1999.90;999.90;;;2.50;99.90;;;;;;4999660;28;20192;-85
2021/01/09 08:42:56;;;;;;;1999.90;999.90;;;2.50;99.90;;;;;;4998972;28;20257;-86
2021/01/09 08:45:42;;;;;;;1999.90;999.90;;;2.40;99.90;;;;;;4981608;28;20226;-85
2021/01/09 08:48:14;;;;;;;1999.90;999.90;;;2.50;99.90;;;;;;4998996;28;20205;-85
2021/01/09 08:50:52;;;;;;;1999.90;999.90;;;2.50;99.90;;;;;;4980869;28;20661;-85
2021/01/09 08:53:20;;;;;;;1999.90;999.90;;;2.50;99.90;;;;;;4981240;28;20173;-85
2021/01/09 08:55:47;;;;;;;1999.90;999.90;;;2.50;99.90;;;;;;4981901;28;20645;-85
2021/01/09 08:58:27;;;;;;;1999.90;999.90;;;2.50;99.90;;;;;;4980829;28;20167;-85
2021/01/09 09:00:55;;;;;;;1999.90;999.90;;;2.60;99.90;;;;;;4998733;28;20170;-85
2021/01/09 09:03:25;;;;;;;1999.90;999.90;;;2.60;99.90;;;;;;4998153;28;20171;-85
2021/01/09 09:05:51;;;;;;;1999.90;999.90;;;2.50;99.90;;;;;;4998405;28;20190;-85
2021/01/09 09:08:18;;;;;;;1999.90;999.90;;;2.60;99.90;;;;;;4998179;28;20163;-85
2021/01/09 09:10:46;;;;;;;1999.90;999.90;;;2.60;99.90;;;;;;4997373;28;20218;-85
2021/01/09 09:13:15;;;;;;;1999.90;999.90;;;2.70;99.90;;;;;;4998406;28;20665;-85
2021/01/09 09:15:43;;;;;;;1999.90;999.90;;;2.80;99.90;;;;;;4998771;28;20194;-85
2021/01/09 09:18:12;;;;;;;1999.90;999.90;;;2.70;99.90;;;;;;4997659;28;20258;-85
2021/01/09 09:20:43;;;;;;;1999.90;999.90;;;2.70;99.90;;;;;;4981019;28;20174;-85
2021/01/09 09:23:16;;;;;;;1999.90;999.90;;;2.80;99.90;;;;;;4981355;28;20166;-85
2021/01/09 09:25:41;;;;;;;1999.90;999.90;;;2.80;99.90;;;;;;4980046;28;20174;-85
2021/01/09 09:28:07;;;;;;;1999.90;999.90;;;2.70;99.90;;;;;;4979698;28;20175;-85
2021/01/09 09:30:33;;;;;;;1999.90;999.90;;;2.80;99.90;;;;;;4997675;28;20249;-85
2021/01/09 09:33:11;;;;;;;1999.90;999.90;;;2.80;99.90;;;;;;4997406;28;20182;-86
2021/01/09 09:35:37;;;;;;;1999.90;999.90;;;2.80;99.90;;;;;;4980398;28;20159;-86
2021/01/09 09:38:03;;;;;;;1999.90;999.90;;;2.80;99.90;;;;;;4998286;28;20155;-86
2021/01/09 09:40:35;;;;;;;1999.90;999.90;;;2.80;99.90;;;;;;4997514;28;20547;-86
2021/01/09 09:43:17;;;;;;;1999.90;999.90;;;2.80;99.90;;;;;;4997797;28;20175;-86
2021/01/09 09:46:01;;;;;;;1999.90;999.90;;;2.80;99.90;;;;;;4979750;28;20185;-86
2021/01/09 09:48:29;;;;;;;1999.90;999.90;;;2.90;99.90;;;;;;4980680;28;20210;-86
2021/01/09 09:51:07;;;;;;;1999.90;999.90;;;2.90;99.90;;;;;;4979939;28;20193;-86
2021/01/09 09:53:36;;;;;;;1999.90;999.90;;;2.90;99.90;;;;;;4998120;28;20143;-86
2021/01/09 09:56:16;;;;;;;1999.90;999.90;;;2.90;99.90;;;;;;4997764;28;20624;-86
2021/01/09 09:58:42;;;;;;;1999.90;999.90;;;3.00;99.90;;;;;;4997792;28;20613;-86
2021/01/09 10:01:23;;;;;;;1999.90;999.90;;;3.10;99.90;;;;;;4997269;28;20530;-86
2021/01/09 10:03:53;;;;;;;1999.90;999.90;;;3.10;99.90;;;;;;4979649;28;20539;-86
2021/01/09 10:06:18;;;;;;;1999.90;999.90;;;3.10;99.90;;;;;;4997212;28;20174;-85
2021/01/09 10:08:45;;;;;;;1999.90;999.90;;;3.10;99.90;;;;;;4997312;28;20195;-86
2021/01/09 10:11:11;;;;;;;1999.90;999.90;;;3.10;99.90;;;;;;4996067;28;20167;-86
2021/01/09 10:13:37;;;;;;;1999.90;999.90;;;3.10;99.90;;;;;;4979895;28;20233;-86
2021/01/09 10:16:12;;;;;;;1999.90;999.90;;;3.10;99.90;;;;;;4979631;28;20413;-86
2021/01/09 10:18:38;;;;;;;1999.90;999.90;;;3.20;99.90;;;;;;4997579;28;20155;-86
2021/01/09 10:21:03;;;;;;;1999.90;999.90;;;3.20;99.90;;;;;;4997585;28;20163;-86
2021/01/09 10:23:32;;;;;;;1999.90;999.90;;;3.10;99.90;;;;;;4997037;28;20170;-86
2021/01/09 10:25:57;;;;;;;1999.90;999.90;;;3.20;99.90;;;;;;4997899;28;20178;-86
2021/01/09 10:28:24;;;;;;;1999.90;999.90;;;3.20;99.90;;;;;;4997333;28;20175;-86
2021/01/09 10:30:49;;;;;;;1999.90;999.90;;;3.20;99.90;;;;;;4980037;28;20174;-86
2021/01/09 10:33:16;;;;;;;1999.90;999.90;;;3.20;99.90;;;;;;4979694;28;20301;-86
2021/01/09 10:35:46;;;;;;;1999.90;999.90;;;3.20;99.90;;;;;;4997675;28;20194;-86
2021/01/09 10:38:12;;;;;;;1999.90;999.90;;;3.30;99.90;;;;;;4979864;28;20177;-86
2021/01/09 10:40:42;;;;;;;1999.90;999.90;;;3.20;99.90;;;;;;4979467;28;20177;-86
2021/01/09 10:43:08;;;;;;;1999.90;999.90;;;3.20;99.90;;;;;;4997118;28;20174;-86
2021/01/09 10:45:33;;;;;;;1999.90;999.90;;;3.20;99.90;;;;;;4997045;28;20178;-86
2021/01/09 10:47:59;;;;;;;1999.90;999.90;;;3.30;99.90;;;;;;4996961;28;20805;-86
2021/01/09 10:50:27;;;;;;;1999.90;999.90;;;3.20;99.90;;;;;;4979553;28;20197;-86
2021/01/09 10:52:53;;;;;;;1999.90;999.90;;;3.20;99.90;;;;;;4979444;28;20167;-86
2021/01/09 10:55:18;;;;;;;1999.90;999.90;;;3.30;99.90;;;;;;4996987;28;20170;-86
2021/01/09 10:57:44;;;;;;;1999.90;999.90;;;3.30;99.90;;;;;;4997629;28;20170;-86
2021/01/09 11:00:10;;;;;;;1999.90;999.90;;;3.40;99.90;;;;;;4997172;28;20214;-86
2021/01/09 11:02:36;;;;;;;1999.90;999.90;;;3.40;99.90;;;;;;4979927;28;20633;-86
2021/01/09 11:05:03;;;;;;;1999.90;999.90;;;3.50;99.90;;;;;;4998549;28;20194;-86
2021/01/09 11:07:28;;;;;;;1999.90;999.90;;;3.50;99.90;;;;;;4980273;28;20166;-86
2021/01/09 11:09:54;;;;;;;1999.90;999.90;;;3.50;99.90;;;;;;4997110;28;20194;-87
2021/01/09 11:12:20;;;;;;;1999.90;999.90;;;3.50;99.90;;;;;;5067215;23;20205;-85
2021/01/09 11:14:46;;;;;;;1999.90;999.90;;;3.50;99.90;;;;;;5019268;28;20197;-85
2021/01/09 11:17:12;;;;;;;1999.90;999.90;;;3.40;99.90;;;;;;5019231;28;20712;-85
2021/01/09 11:19:38;;;;;;;1999.90;999.90;;;3.40;99.90;;;;;;5018872;28;20205;-85
2021/01/09 11:22:06;;;;;;;1999.90;999.90;;;3.50;99.90;;;;;;5001603;28;20240;-85
2021/01/09 11:24:33;;;;;;;1999.90;999.90;;;3.60;99.90;;;;;;5019476;28;20200;-85
2021/01/09 11:27:06;;;;;;;1999.90;999.90;;;3.50;99.90;;;;;;5000749;28;20224;-85
2021/01/09 11:29:33;;;;;;;1999.90;999.90;;;3.50;99.90;;;;;;5001223;28;20212;-85
2021/01/09 11:32:00;;;;;;;1999.90;999.90;;;3.60;99.90;;;;;;5018518;28;20157;-85
2021/01/09 11:34:26;;;;;;;1999.90;999.90;;;3.50;99.90;;;;;;5004941;28;20162;-85
2021/01/09 11:36:52;;;;;;;1999.90;999.90;;;3.50;99.90;;;;;;5005123;28;20173;-85
2021/01/09 11:39:18;;;;;;;1999.90;999.90;;;3.40;99.90;;;;;;5004866;28;20644;-85
2021/01/09 11:41:44;;;;;;;1999.90;999.90;;;3.50;99.90;;;;;;5004681;28;20783;-85
2021/01/09 11:44:10;;;;;;;1999.90;999.90;;;3.60;99.90;;;;;;5003933;28;20183;-85
2021/01/09 11:46:36;;;;;;;1999.90;999.90;;;3.60;99.90;;;;;;5005129;28;20209;-85
2021/01/09 11:49:01;;;;;;;1999.90;999.90;;;3.60;99.90;;;;;;5021371;28;20194;-86
2021/01/09 11:51:27;;;;;;;1999.90;999.90;;;3.50;99.90;;;;;;5022820;28;20162;-85
2021/01/09 11:53:52;;;;;;;1999.90;999.90;;;3.50;99.90;;;;;;5021526;28;20541;-85
2021/01/09 11:56:19;;;;;;;1999.90;999.90;;;3.50;99.90;;;;;;5021910;28;20169;-85
2021/01/09 11:58:45;;;;;;;1999.90;999.90;;;3.50;99.90;;;;;;5022657;28;20177;-85
2021/01/09 12:01:11;;;;;;;1999.90;999.90;;;3.60;99.90;;;;;;5005205;28;20633;-85
2021/01/09 12:03:36;;;;;;;1999.90;999.90;;;3.60;99.90;;;;;;5022259;28;20162;-85
2021/01/09 12:06:02;;;;;;;1999.90;999.90;;;3.70;99.90;;;;;;5004720;28;20169;-85
2021/01/09 12:08:28;;;;;;;1999.90;999.90;;;3.60;99.90;;;;;;5023472;28;20166;-85
2021/01/09 12:10:53;;;;;;;1999.90;999.90;;;3.60;99.90;;;;;;5005094;28;20166;-85
2021/01/09 12:13:19;;;;;;;1999.90;999.90;;;3.60;99.90;;;;;;5022783;28;20181;-85